TimeCST,TemperatureF,Dew PointF,Humidity,Sea Level PressureIn,VisibilityMPH,Wind Direction,Wind SpeedMPH,Gust SpeedMPH,PrecipitationIn,Events,Conditions,WindDirDegrees,DateUTC
12:53 AM,37.9,32.0,79,30.11,10.0,North,11.5,-,N/A,,Overcast,350,2013-12-15 06:53:00
1:53 AM,37.9,30.0,73,30.13,10.0,North,10.4,-,N/A,,Overcast,10,2013-12-15 07:53:00
2:53 AM,37.0,30.0,76,30.14,10.0,North,6.9,-,N/A,,Overcast,360,2013-12-15 08:53:00
3:53 AM,36.0,28.9,76,30.17,10.0,North,11.5,17.3,N/A,,Overcast,350,2013-12-15 09:53:00
4:53 AM,36.0,28.0,73,30.18,10.0,North,10.4,20.7,N/A,,Overcast,360,2013-12-15 10:53:00
5:53 AM,36.0,28.0,73,30.21,10.0,NNW,5.8,-,N/A,,Overcast,330,2013-12-15 11:53:00
6:53 AM,35.1,28.0,76,30.22,10.0,North,9.2,-,N/A,,Overcast,350,2013-12-15 12:53:00
7:53 AM,35.1,28.0,76,30.25,10.0,NNE,11.5,-,N/A,,Overcast,20,2013-12-15 13:53:00
8:53 AM,35.1,28.0,76,30.27,10.0,North,4.6,-,N/A,,Overcast,360,2013-12-15 14:53:00
9:53 AM,34.0,27.0,75,30.29,10.0,NNW,8.1,-,N/A,,Overcast,340,2013-12-15 15:53:00
10:53 AM,35.1,27.0,72,30.28,10.0,North,6.9,-,N/A,,Overcast,360,2013-12-15 16:53:00
11:53 AM,35.1,28.0,76,30.26,10.0,NNE,5.8,-,N/A,,Overcast,20,2013-12-15 17:53:00
12:53 PM,36.0,28.0,73,30.25,10.0,North,9.2,-,N/A,,Overcast,360,2013-12-15 18:53:00
1:53 PM,37.0,28.0,70,30.25,10.0,WNW,4.6,-,N/A,,Overcast,300,2013-12-15 19:53:00
2:53 PM,39.0,28.9,67,30.26,10.0,NW,3.5,-,N/A,,Scattered Clouds,310,2013-12-15 20:53:00
3:53 PM,39.0,28.0,65,30.26,10.0,Calm,Calm,-,N/A,,Clear,0,2013-12-15 21:53:00
4:53 PM,35.1,28.0,76,30.26,10.0,SW,4.6,-,N/A,,Clear,220,2013-12-15 22:53:00
5:53 PM,33.1,28.0,82,30.27,10.0,Calm,Calm,-,N/A,,Clear,0,2013-12-15 23:53:00
6:53 PM,32.0,28.0,85,30.28,10.0,Calm,Calm,-,N/A,,Clear,0,2013-12-16 00:53:00
7:53 PM,30.0,27.0,88,30.29,10.0,SSW,4.6,-,N/A,,Clear,210,2013-12-16 01:53:00
8:53 PM,28.0,26.1,92,30.29,9.0,SW,3.5,-,N/A,,Clear,220,2013-12-16 02:53:00
9:53 PM,28.0,26.1,92,30.29,9.0,Calm,Calm,-,N/A,,Clear,0,2013-12-16 03:53:00
10:53 PM,27.0,24.1,89,30.29,8.0,SW,3.5,-,N/A,,Clear,220,2013-12-16 04:53:00
11:53 PM,27.0,25.0,92,30.27,6.0,SW,4.6,-,N/A,,Clear,220,2013-12-16 05:53:00